sensor_id;sensor_type;location;lat;lon;timestamp;P1;durP1;ratioP1;P2;durP2;ratioP2
42110;SDS011;27766;52.174;5.456;2022-10-16T00:01:23;1.48;;;1.27;;
42110;SDS011;27766;52.174;5.456;2022-10-16T00:03:52;5.70;;;1.52;;
42110;SDS011;27766;52.174;5.456;2022-10-16T00:06:20;8.07;;;2.00;;
42110;SDS011;27766;52.174;5.456;2022-10-16T00:08:48;6.72;;;1.98;;
42110;SDS011;27766;52.174;5.456;2022-10-16T00:11:23;5.20;;;1.83;;
42110;SDS011;27766;52.174;5.456;2022-10-16T00:13:54;2.75;;;1.80;;
42110;SDS011;27766;52.174;5.456;2022-10-16T00:16:27;8.10;;;1.83;;
42110;SDS011;27766;52.174;5.456;2022-10-16T00:18:54;3.55;;;1.88;;
42110;SDS011;27766;52.174;5.456;2022-10-16T00:21:25;2.92;;;1.75;;
42110;SDS011;27766;52.174;5.456;2022-10-16T00:24:01;4.43;;;2.00;;
42110;SDS011;27766;52.174;5.456;2022-10-16T00:26:31;5.10;;;2.22;;
42110;SDS011;27766;52.174;5.456;2022-10-16T00:29:00;2.88;;;1.67;;
42110;SDS011;27766;52.174;5.456;2022-10-16T00:31:28;9.32;;;2.22;;
42110;SDS011;27766;52.174;5.456;2022-10-16T00:33:55;2.83;;;1.98;;
42110;SDS011;27766;52.174;5.456;2022-10-16T00:36:23;6.10;;;2.20;;
42110;SDS011;27766;52.174;5.456;2022-10-16T00:38:51;4.20;;;2.13;;
42110;SDS011;27766;52.174;5.456;2022-10-16T00:41:22;3.95;;;1.60;;
42110;SDS011;27766;52.174;5.456;2022-10-16T00:43:52;5.50;;;2.38;;
42110;SDS011;27766;52.174;5.456;2022-10-16T00:46:25;4.07;;;1.95;;
42110;SDS011;27766;52.174;5.456;2022-10-16T00:51:37;3.42;;;2.05;;
42110;SDS011;27766;52.174;5.456;2022-10-16T00:54:10;5.60;;;2.03;;
42110;SDS011;27766;52.174;5.456;2022-10-16T00:56:41;6.28;;;2.30;;
42110;SDS011;27766;52.174;5.456;2022-10-16T00:59:16;4.22;;;2.08;;
42110;SDS011;27766;52.174;5.456;2022-10-16T01:01:57;4.95;;;2.30;;
42110;SDS011;27766;52.174;5.456;2022-10-16T01:04:25;5.88;;;2.30;;
42110;SDS011;27766;52.174;5.456;2022-10-16T01:07:03;4.20;;;2.22;;
42110;SDS011;27766;52.174;5.456;2022-10-16T01:12:25;3.38;;;2.45;;
42110;SDS011;27766;52.174;5.456;2022-10-16T01:23:27;6.80;;;2.92;;
42110;SDS011;27766;52.174;5.456;2022-10-16T01:28:53;5.28;;;3.03;;
42110;SDS011;27766;52.174;5.456;2022-10-16T01:31:25;5.57;;;2.60;;
42110;SDS011;27766;52.174;5.456;2022-10-16T01:33:56;4.20;;;2.92;;
42110;SDS011;27766;52.174;5.456;2022-10-16T01:36:29;5.80;;;2.90;;
42110;SDS011;27766;52.174;5.456;2022-10-16T01:39:04;4.82;;;2.80;;
42110;SDS011;27766;52.174;5.456;2022-10-16T01:41:37;4.82;;;3.17;;
42110;SDS011;27766;52.174;5.456;2022-10-16T01:44:09;6.70;;;3.05;;
42110;SDS011;27766;52.174;5.456;2022-10-16T01:46:57;6.53;;;3.28;;
42110;SDS011;27766;52.174;5.456;2022-10-16T01:49:29;3.80;;;2.78;;
42110;SDS011;27766;52.174;5.456;2022-10-16T01:54:32;7.55;;;3.33;;
42110;SDS011;27766;52.174;5.456;2022-10-16T01:57:04;5.35;;;3.25;;
42110;SDS011;27766;52.174;5.456;2022-10-16T01:59:34;5.10;;;3.30;;
42110;SDS011;27766;52.174;5.456;2022-10-16T02:02:06;6.75;;;3.40;;
42110;SDS011;27766;52.174;5.456;2022-10-16T02:04:37;3.90;;;3.00;;
42110;SDS011;27766;52.174;5.456;2022-10-16T02:07:06;4.00;;;3.00;;
42110;SDS011;27766;52.174;5.456;2022-10-16T02:09:34;5.93;;;2.65;;
42110;SDS011;27766;52.174;5.456;2022-10-16T02:12:04;4.30;;;2.85;;
42110;SDS011;27766;52.174;5.456;2022-10-16T02:14:37;3.95;;;2.38;;
42110;SDS011;27766;52.174;5.456;2022-10-16T02:17:15;4.80;;;2.92;;
42110;SDS011;27766;52.174;5.456;2022-10-16T02:19:47;4.70;;;1.65;;
42110;SDS011;27766;52.174;5.456;2022-10-16T02:22:24;8.93;;;2.97;;
42110;SDS011;27766;52.174;5.456;2022-10-16T02:27:39;3.38;;;2.22;;
42110;SDS011;27766;52.174;5.456;2022-10-16T02:30:21;6.55;;;2.55;;
42110;SDS011;27766;52.174;5.456;2022-10-16T02:32:57;4.55;;;2.13;;
42110;SDS011;27766;52.174;5.456;2022-10-16T02:35:28;3.05;;;2.63;;
42110;SDS011;27766;52.174;5.456;2022-10-16T02:37:57;3.47;;;2.13;;
42110;SDS011;27766;52.174;5.456;2022-10-16T02:40:25;4.07;;;2.40;;
42110;SDS011;27766;52.174;5.456;2022-10-16T02:42:53;3.70;;;2.80;;
42110;SDS011;27766;52.174;5.456;2022-10-16T02:45:22;4.75;;;2.25;;
42110;SDS011;27766;52.174;5.456;2022-10-16T02:47:50;11.05;;;2.65;;
42110;SDS011;27766;52.174;5.456;2022-10-16T02:50:18;3.10;;;2.30;;
42110;SDS011;27766;52.174;5.456;2022-10-16T02:52:45;9.40;;;2.83;;
42110;SDS011;27766;52.174;5.456;2022-10-16T02:55:12;8.38;;;2.13;;
42110;SDS011;27766;52.174;5.456;2022-10-16T02:57:39;5.90;;;3.17;;
42110;SDS011;27766;52.174;5.456;2022-10-16T03:00:08;4.00;;;2.63;;
42110;SDS011;27766;52.174;5.456;2022-10-16T03:02:36;3.38;;;2.70;;
42110;SDS011;27766;52.174;5.456;2022-10-16T03:05:03;3.13;;;2.55;;
42110;SDS011;27766;52.174;5.456;2022-10-16T03:07:30;3.13;;;2.28;;
42110;SDS011;27766;52.174;5.456;2022-10-16T03:09:57;3.70;;;2.58;;
42110;SDS011;27766;52.174;5.456;2022-10-16T03:12:27;7.20;;;2.55;;
42110;SDS011;27766;52.174;5.456;2022-10-16T03:14:55;4.53;;;2.83;;
42110;SDS011;27766;52.174;5.456;2022-10-16T03:17:23;5.50;;;2.83;;
42110;SDS011;27766;52.174;5.456;2022-10-16T03:19:51;4.25;;;2.88;;
42110;SDS011;27766;52.174;5.456;2022-10-16T03:22:18;4.75;;;2.72;;
42110;SDS011;27766;52.174;5.456;2022-10-16T03:24:45;5.90;;;2.75;;
42110;SDS011;27766;52.174;5.456;2022-10-16T03:27:12;3.55;;;2.13;;
42110;SDS011;27766;52.174;5.456;2022-10-16T03:29:39;4.10;;;1.92;;
42110;SDS011;27766;52.174;5.456;2022-10-16T03:32:06;5.05;;;2.72;;
42110;SDS011;27766;52.174;5.456;2022-10-16T03:34:33;5.65;;;2.47;;
42110;SDS011;27766;52.174;5.456;2022-10-16T03:37:00;4.32;;;2.50;;
42110;SDS011;27766;52.174;5.456;2022-10-16T03:39:27;5.30;;;2.90;;
42110;SDS011;27766;52.174;5.456;2022-10-16T03:41:54;2.67;;;2.00;;
42110;SDS011;27766;52.174;5.456;2022-10-16T03:44:21;6.10;;;2.55;;
42110;SDS011;27766;52.174;5.456;2022-10-16T03:46:48;5.25;;;2.85;;
42110;SDS011;27766;52.174;5.456;2022-10-16T03:49:15;4.53;;;2.38;;
42110;SDS011;27766;52.174;5.456;2022-10-16T03:51:42;4.25;;;2.30;;
42110;SDS011;27766;52.174;5.456;2022-10-16T03:54:10;2.78;;;2.35;;
42110;SDS011;27766;52.174;5.456;2022-10-16T03:56:37;4.05;;;2.80;;
42110;SDS011;27766;52.174;5.456;2022-10-16T03:59:05;5.07;;;2.58;;
42110;SDS011;27766;52.174;5.456;2022-10-16T04:01:32;3.90;;;2.22;;
42110;SDS011;27766;52.174;5.456;2022-10-16T04:03:59;4.63;;;2.53;;
42110;SDS011;27766;52.174;5.456;2022-10-16T04:06:26;3.75;;;2.15;;
42110;SDS011;27766;52.174;5.456;2022-10-16T04:08:56;3.63;;;2.63;;
42110;SDS011;27766;52.174;5.456;2022-10-16T04:11:26;3.72;;;2.65;;
42110;SDS011;27766;52.174;5.456;2022-10-16T04:13:54;3.92;;;2.42;;
42110;SDS011;27766;52.174;5.456;2022-10-16T04:16:21;6.90;;;3.08;;
42110;SDS011;27766;52.174;5.456;2022-10-16T04:18:48;4.13;;;2.47;;
42110;SDS011;27766;52.174;5.456;2022-10-16T04:21:15;4.93;;;1.90;;
42110;SDS011;27766;52.174;5.456;2022-10-16T04:23:42;3.50;;;2.53;;
42110;SDS011;27766;52.174;5.456;2022-10-16T04:26:09;5.18;;;2.60;;
42110;SDS011;27766;52.174;5.456;2022-10-16T04:28:37;2.40;;;1.77;;
42110;SDS011;27766;52.174;5.456;2022-10-16T04:31:05;4.68;;;2.15;;
42110;SDS011;27766;52.174;5.456;2022-10-16T04:33:33;3.90;;;2.22;;
42110;SDS011;27766;52.174;5.456;2022-10-16T04:36:00;5.00;;;2.20;;
42110;SDS011;27766;52.174;5.456;2022-10-16T04:38:29;3.92;;;2.10;;
42110;SDS011;27766;52.174;5.456;2022-10-16T04:40:57;3.22;;;2.10;;
42110;SDS011;27766;52.174;5.456;2022-10-16T04:43:25;2.15;;;1.70;;
42110;SDS011;27766;52.174;5.456;2022-10-16T04:45:52;4.82;;;1.90;;
42110;SDS011;27766;52.174;5.456;2022-10-16T04:48:21;2.40;;;2.08;;
42110;SDS011;27766;52.174;5.456;2022-10-16T04:50:48;4.85;;;2.38;;
42110;SDS011;27766;52.174;5.456;2022-10-16T04:53:20;2.78;;;1.45;;
42110;SDS011;27766;52.174;5.456;2022-10-16T04:55:48;3.30;;;2.08;;
42110;SDS011;27766;52.174;5.456;2022-10-16T04:58:15;3.28;;;2.20;;
42110;SDS011;27766;52.174;5.456;2022-10-16T05:00:41;2.20;;;1.45;;
42110;SDS011;27766;52.174;5.456;2022-10-16T05:03:09;3.00;;;2.03;;
42110;SDS011;27766;52.174;5.456;2022-10-16T05:05:36;2.42;;;1.77;;
42110;SDS011;27766;52.174;5.456;2022-10-16T05:08:03;3.30;;;2.15;;
42110;SDS011;27766;52.174;5.456;2022-10-16T05:10:30;2.78;;;2.05;;
42110;SDS011;27766;52.174;5.456;2022-10-16T05:12:58;3.63;;;1.90;;
42110;SDS011;27766;52.174;5.456;2022-10-16T05:15:25;4.97;;;2.15;;
42110;SDS011;27766;52.174;5.456;2022-10-16T05:17:53;3.08;;;1.90;;
42110;SDS011;27766;52.174;5.456;2022-10-16T05:20:26;2.53;;;1.98;;
42110;SDS011;27766;52.174;5.456;2022-10-16T05:22:53;5.45;;;2.03;;
42110;SDS011;27766;52.174;5.456;2022-10-16T05:25:21;3.60;;;1.85;;
42110;SDS011;27766;52.174;5.456;2022-10-16T05:27:48;4.80;;;2.17;;
42110;SDS011;27766;52.174;5.456;2022-10-16T05:30:15;2.85;;;1.80;;
42110;SDS011;27766;52.174;5.456;2022-10-16T05:32:47;3.17;;;1.90;;
42110;SDS011;27766;52.174;5.456;2022-10-16T05:35:15;5.68;;;2.08;;
42110;SDS011;27766;52.174;5.456;2022-10-16T05:37:44;2.97;;;1.73;;
42110;SDS011;27766;52.174;5.456;2022-10-16T05:40:11;4.50;;;2.45;;
42110;SDS011;27766;52.174;5.456;2022-10-16T05:42:39;3.53;;;1.98;;
42110;SDS011;27766;52.174;5.456;2022-10-16T05:45:08;2.40;;;1.63;;
42110;SDS011;27766;52.174;5.456;2022-10-16T05:47:37;2.17;;;1.70;;
42110;SDS011;27766;52.174;5.456;2022-10-16T05:50:04;6.75;;;2.50;;
42110;SDS011;27766;52.174;5.456;2022-10-16T05:52:31;3.47;;;2.20;;
42110;SDS011;27766;52.174;5.456;2022-10-16T05:54:58;7.78;;;3.00;;
42110;SDS011;27766;52.174;5.456;2022-10-16T05:57:25;4.53;;;1.77;;
42110;SDS011;27766;52.174;5.456;2022-10-16T05:59:54;2.65;;;2.00;;
42110;SDS011;27766;52.174;5.456;2022-10-16T06:02:22;2.60;;;1.77;;
42110;SDS011;27766;52.174;5.456;2022-10-16T06:04:51;3.70;;;2.08;;
42110;SDS011;27766;52.174;5.456;2022-10-16T06:07:19;4.10;;;1.85;;
42110;SDS011;27766;52.174;5.456;2022-10-16T06:09:50;3.05;;;2.25;;
42110;SDS011;27766;52.174;5.456;2022-10-16T06:12:18;2.58;;;2.22;;
42110;SDS011;27766;52.174;5.456;2022-10-16T06:14:45;9.30;;;2.92;;
42110;SDS011;27766;52.174;5.456;2022-10-16T06:17:16;6.82;;;2.20;;
42110;SDS011;27766;52.174;5.456;2022-10-16T06:19:43;3.72;;;2.33;;
42110;SDS011;27766;52.174;5.456;2022-10-16T06:22:10;3.97;;;2.22;;
42110;SDS011;27766;52.174;5.456;2022-10-16T06:24:37;4.03;;;2.03;;
42110;SDS011;27766;52.174;5.456;2022-10-16T06:27:04;4.30;;;2.33;;
42110;SDS011;27766;52.174;5.456;2022-10-16T06:29:32;2.00;;;1.65;;
42110;SDS011;27766;52.174;5.456;2022-10-16T06:31:59;3.80;;;2.50;;
42110;SDS011;27766;52.174;5.456;2022-10-16T06:34:26;9.05;;;2.17;;
42110;SDS011;27766;52.174;5.456;2022-10-16T06:36:53;5.15;;;2.28;;
42110;SDS011;27766;52.174;5.456;2022-10-16T06:39:20;4.55;;;2.30;;
42110;SDS011;27766;52.174;5.456;2022-10-16T06:41:47;2.88;;;1.95;;
42110;SDS011;27766;52.174;5.456;2022-10-16T06:44:15;2.70;;;2.10;;
42110;SDS011;27766;52.174;5.456;2022-10-16T06:46:42;5.38;;;2.10;;
42110;SDS011;27766;52.174;5.456;2022-10-16T06:49:09;8.43;;;2.47;;
42110;SDS011;27766;52.174;5.456;2022-10-16T06:51:36;5.05;;;2.20;;
42110;SDS011;27766;52.174;5.456;2022-10-16T06:54:09;3.75;;;2.53;;
42110;SDS011;27766;52.174;5.456;2022-10-16T06:56:36;7.22;;;2.10;;
42110;SDS011;27766;52.174;5.456;2022-10-16T06:59:04;3.22;;;2.28;;
42110;SDS011;27766;52.174;5.456;2022-10-16T07:01:34;5.88;;;2.50;;
42110;SDS011;27766;52.174;5.456;2022-10-16T07:04:01;3.38;;;2.03;;
42110;SDS011;27766;52.174;5.456;2022-10-16T07:06:30;5.38;;;2.20;;
42110;SDS011;27766;52.174;5.456;2022-10-16T07:09:01;2.55;;;1.80;;
42110;SDS011;27766;52.174;5.456;2022-10-16T07:11:33;5.90;;;2.42;;
42110;SDS011;27766;52.174;5.456;2022-10-16T07:14:00;2.58;;;1.67;;
42110;SDS011;27766;52.174;5.456;2022-10-16T07:16:28;3.15;;;1.85;;
42110;SDS011;27766;52.174;5.456;2022-10-16T07:18:57;3.38;;;2.15;;
42110;SDS011;27766;52.174;5.456;2022-10-16T07:21:28;4.03;;;1.90;;
42110;SDS011;27766;52.174;5.456;2022-10-16T07:24:02;1.60;;;1.50;;
42110;SDS011;27766;52.174;5.456;2022-10-16T07:26:33;2.50;;;2.05;;
42110;SDS011;27766;52.174;5.456;2022-10-16T07:29:01;5.72;;;2.40;;
42110;SDS011;27766;52.174;5.456;2022-10-16T07:31:30;4.65;;;1.60;;
42110;SDS011;27766;52.174;5.456;2022-10-16T07:33:58;3.05;;;2.00;;
42110;SDS011;27766;52.174;5.456;2022-10-16T07:36:26;3.38;;;1.65;;
42110;SDS011;27766;52.174;5.456;2022-10-16T07:38:53;4.93;;;1.67;;
42110;SDS011;27766;52.174;5.456;2022-10-16T07:41:26;2.83;;;1.50;;
42110;SDS011;27766;52.174;5.456;2022-10-16T07:43:56;4.93;;;1.63;;
42110;SDS011;27766;52.174;5.456;2022-10-16T07:46:27;2.15;;;1.48;;
42110;SDS011;27766;52.174;5.456;2022-10-16T07:48:54;2.25;;;1.20;;
42110;SDS011;27766;52.174;5.456;2022-10-16T07:51:22;4.20;;;1.60;;
42110;SDS011;27766;52.174;5.456;2022-10-16T07:53:51;2.30;;;1.55;;
42110;SDS011;27766;52.174;5.456;2022-10-16T07:56:20;2.92;;;1.75;;
42110;SDS011;27766;52.174;5.456;2022-10-16T07:58:48;2.85;;;1.48;;
42110;SDS011;27766;52.174;5.456;2022-10-16T08:01:16;2.60;;;1.40;;
42110;SDS011;27766;52.174;5.456;2022-10-16T08:03:45;2.92;;;1.77;;
42110;SDS011;27766;52.174;5.456;2022-10-16T08:06:15;3.38;;;2.10;;
42110;SDS011;27766;52.174;5.456;2022-10-16T08:08:42;2.42;;;1.70;;
42110;SDS011;27766;52.174;5.456;2022-10-16T08:11:09;3.40;;;1.58;;
42110;SDS011;27766;52.174;5.456;2022-10-16T08:13:37;5.03;;;1.85;;
42110;SDS011;27766;52.174;5.456;2022-10-16T08:16:04;2.35;;;1.90;;
42110;SDS011;27766;52.174;5.456;2022-10-16T08:18:38;3.45;;;2.30;;
42110;SDS011;27766;52.174;5.456;2022-10-16T08:21:06;4.05;;;2.58;;
42110;SDS011;27766;52.174;5.456;2022-10-16T08:23:34;4.20;;;3.08;;
42110;SDS011;27766;52.174;5.456;2022-10-16T08:26:02;4.80;;;2.40;;
42110;SDS011;27766;52.174;5.456;2022-10-16T08:28:32;3.47;;;2.33;;
42110;SDS011;27766;52.174;5.456;2022-10-16T08:31:07;4.25;;;2.55;;
42110;SDS011;27766;52.174;5.456;2022-10-16T08:33:40;7.57;;;2.33;;
42110;SDS011;27766;52.174;5.456;2022-10-16T08:36:09;4.55;;;1.80;;
42110;SDS011;27766;52.174;5.456;2022-10-16T08:38:36;3.33;;;2.28;;
42110;SDS011;27766;52.174;5.456;2022-10-16T08:43:43;4.95;;;2.25;;
42110;SDS011;27766;52.174;5.456;2022-10-16T08:49:17;2.80;;;1.98;;
42110;SDS011;27766;52.174;5.456;2022-10-16T08:51:45;3.55;;;2.00;;
42110;SDS011;27766;52.174;5.456;2022-10-16T08:54:29;5.63;;;1.85;;
42110;SDS011;27766;52.174;5.456;2022-10-16T08:57:17;4.03;;;2.35;;
42110;SDS011;27766;52.174;5.456;2022-10-16T08:59:50;8.07;;;2.17;;
42110;SDS011;27766;52.174;5.456;2022-10-16T09:04:51;3.15;;;1.75;;
42110;SDS011;27766;52.174;5.456;2022-10-16T09:07:43;5.15;;;2.28;;
42110;SDS011;27766;52.174;5.456;2022-10-16T09:13:28;8.20;;;2.28;;
42110;SDS011;27766;52.174;5.456;2022-10-16T09:21:26;4.10;;;1.48;;
42110;SDS011;27766;52.174;5.456;2022-10-16T09:24:17;6.13;;;2.15;;
42110;SDS011;27766;52.174;5.456;2022-10-16T09:26:55;5.15;;;2.03;;
42110;SDS011;27766;52.174;5.456;2022-10-16T09:29:22;9.63;;;2.40;;
42110;SDS011;27766;52.174;5.456;2022-10-16T09:31:52;8.73;;;2.33;;
42110;SDS011;27766;52.174;5.456;2022-10-16T09:34:31;8.80;;;1.73;;
42110;SDS011;27766;52.174;5.456;2022-10-16T09:37:05;6.13;;;2.20;;
42110;SDS011;27766;52.174;5.456;2022-10-16T09:39:48;1.63;;;1.05;;
42110;SDS011;27766;52.174;5.456;2022-10-16T09:42:17;12.45;;;2.35;;
42110;SDS011;27766;52.174;5.456;2022-10-16T09:44:47;6.38;;;2.22;;
42110;SDS011;27766;52.174;5.456;2022-10-16T09:47:25;6.57;;;2.83;;
42110;SDS011;27766;52.174;5.456;2022-10-16T09:49:58;5.20;;;1.85;;
42110;SDS011;27766;52.174;5.456;2022-10-16T09:52:32;5.47;;;1.80;;
42110;SDS011;27766;52.174;5.456;2022-10-16T09:55:01;6.13;;;2.00;;
42110;SDS011;27766;52.174;5.456;2022-10-16T09:57:51;4.60;;;1.90;;
42110;SDS011;27766;52.174;5.456;2022-10-16T10:00:23;7.00;;;2.40;;
42110;SDS011;27766;52.174;5.456;2022-10-16T10:02:53;4.95;;;1.50;;
42110;SDS011;27766;52.174;5.456;2022-10-16T10:05:27;6.93;;;2.10;;
42110;SDS011;27766;52.174;5.456;2022-10-16T10:10:33;6.82;;;1.90;;
42110;SDS011;27766;52.174;5.456;2022-10-16T10:13:19;6.70;;;2.97;;
42110;SDS011;27766;52.174;5.456;2022-10-16T10:15:47;4.68;;;1.70;;
42110;SDS011;27766;52.174;5.456;2022-10-16T10:18:16;10.00;;;1.83;;
42110;SDS011;27766;52.174;5.456;2022-10-16T10:20:58;3.47;;;1.75;;
42110;SDS011;27766;52.174;5.456;2022-10-16T10:23:28;7.13;;;1.90;;
42110;SDS011;27766;52.174;5.456;2022-10-16T10:26:05;6.55;;;1.65;;
42110;SDS011;27766;52.174;5.456;2022-10-16T10:28:47;5.75;;;2.15;;
42110;SDS011;27766;52.174;5.456;2022-10-16T10:31:34;7.03;;;2.17;;
42110;SDS011;27766;52.174;5.456;2022-10-16T10:36:53;6.50;;;1.95;;
42110;SDS011;27766;52.174;5.456;2022-10-16T10:39:45;7.80;;;1.80;;
42110;SDS011;27766;52.174;5.456;2022-10-16T10:42:27;5.93;;;1.63;;
42110;SDS011;27766;52.174;5.456;2022-10-16T10:45:21;6.13;;;2.30;;
42110;SDS011;27766;52.174;5.456;2022-10-16T10:47:59;3.75;;;1.75;;
42110;SDS011;27766;52.174;5.456;2022-10-16T10:50:49;3.17;;;1.60;;
42110;SDS011;27766;52.174;5.456;2022-10-16T10:56:00;4.57;;;1.65;;
42110;SDS011;27766;52.174;5.456;2022-10-16T11:07:04;6.72;;;1.70;;
42110;SDS011;27766;52.174;5.456;2022-10-16T11:09:39;11.90;;;2.10;;
42110;SDS011;27766;52.174;5.456;2022-10-16T11:14:50;11.10;;;2.75;;
42110;SDS011;27766;52.174;5.456;2022-10-16T11:17:37;6.45;;;2.30;;
42110;SDS011;27766;52.174;5.456;2022-10-16T11:20:13;10.25;;;1.73;;
42110;SDS011;27766;52.174;5.456;2022-10-16T11:22:47;10.65;;;1.75;;
42110;SDS011;27766;52.174;5.456;2022-10-16T11:35:53;7.28;;;1.55;;
42110;SDS011;27766;52.174;5.456;2022-10-16T11:43:43;8.45;;;1.58;;
42110;SDS011;27766;52.174;5.456;2022-10-16T11:46:20;9.77;;;3.33;;
42110;SDS011;27766;52.174;5.456;2022-10-16T11:49:10;7.60;;;2.63;;
42110;SDS011;27766;52.174;5.456;2022-10-16T11:51:43;11.90;;;2.10;;
42110;SDS011;27766;52.174;5.456;2022-10-16T11:54:20;8.13;;;1.50;;
42110;SDS011;27766;52.174;5.456;2022-10-16T11:57:13;2.58;;;1.13;;
42110;SDS011;27766;52.174;5.456;2022-10-16T11:59:54;8.25;;;1.73;;
42110;SDS011;27766;52.174;5.456;2022-10-16T12:08:23;15.45;;;1.55;;
42110;SDS011;27766;52.174;5.456;2022-10-16T12:10:50;4.32;;;1.58;;
42110;SDS011;27766;52.174;5.456;2022-10-16T12:13:28;4.10;;;1.83;;
42110;SDS011;27766;52.174;5.456;2022-10-16T12:18:39;3.70;;;1.60;;
42110;SDS011;27766;52.174;5.456;2022-10-16T12:21:07;8.27;;;1.50;;
42110;SDS011;27766;52.174;5.456;2022-10-16T12:24:19;2.35;;;1.08;;
42110;SDS011;27766;52.174;5.456;2022-10-16T12:26:36;4.25;;;1.73;;
42110;SDS011;27766;52.174;5.456;2022-10-16T12:29:20;6.28;;;1.50;;
42110;SDS011;27766;52.174;5.456;2022-10-16T12:31:51;3.42;;;1.63;;
42110;SDS011;27766;52.174;5.456;2022-10-16T12:37:10;5.15;;;1.80;;
42110;SDS011;27766;52.174;5.456;2022-10-16T12:39:58;6.00;;;1.75;;
42110;SDS011;27766;52.174;5.456;2022-10-16T12:42:37;4.63;;;2.75;;
42110;SDS011;27766;52.174;5.456;2022-10-16T12:47:53;10.57;;;2.22;;
42110;SDS011;27766;52.174;5.456;2022-10-16T12:52:51;9.20;;;1.58;;
42110;SDS011;27766;52.174;5.456;2022-10-16T12:55:19;7.85;;;2.03;;
42110;SDS011;27766;52.174;5.456;2022-10-16T13:00:45;4.10;;;1.73;;
42110;SDS011;27766;52.174;5.456;2022-10-16T13:08:50;8.95;;;2.53;;
42110;SDS011;27766;52.174;5.456;2022-10-16T13:11:52;6.47;;;3.13;;
42110;SDS011;27766;52.174;5.456;2022-10-16T13:23:03;4.90;;;1.55;;
42110;SDS011;27766;52.174;5.456;2022-10-16T13:25:49;10.38;;;3.10;;
42110;SDS011;27766;52.174;5.456;2022-10-16T13:28:17;3.50;;;1.35;;
42110;SDS011;27766;52.174;5.456;2022-10-16T13:30:52;7.32;;;2.13;;
42110;SDS011;27766;52.174;5.456;2022-10-16T13:35:59;8.60;;;1.40;;
42110;SDS011;27766;52.174;5.456;2022-10-16T13:38:29;5.95;;;1.60;;
42110;SDS011;27766;52.174;5.456;2022-10-16T13:41:13;5.10;;;1.33;;
42110;SDS011;27766;52.174;5.456;2022-10-16T13:43:47;5.50;;;1.60;;
42110;SDS011;27766;52.174;5.456;2022-10-16T13:46:18;6.55;;;1.75;;
42110;SDS011;27766;52.174;5.456;2022-10-16T13:48:58;4.63;;;1.83;;
42110;SDS011;27766;52.174;5.456;2022-10-16T13:51:30;4.80;;;1.45;;
42110;SDS011;27766;52.174;5.456;2022-10-16T13:53:59;7.10;;;1.40;;
42110;SDS011;27766;52.174;5.456;2022-10-16T13:56:27;4.53;;;1.40;;
42110;SDS011;27766;52.174;5.456;2022-10-16T14:01:33;4.00;;;1.67;;
42110;SDS011;27766;52.174;5.456;2022-10-16T14:04:08;2.88;;;1.10;;
42110;SDS011;27766;52.174;5.456;2022-10-16T14:06:40;3.13;;;1.33;;
42110;SDS011;27766;52.174;5.456;2022-10-16T14:09:12;5.05;;;1.35;;
42110;SDS011;27766;52.174;5.456;2022-10-16T14:11:49;7.20;;;1.55;;
42110;SDS011;27766;52.174;5.456;2022-10-16T14:14:19;4.50;;;1.45;;
42110;SDS011;27766;52.174;5.456;2022-10-16T14:16:47;5.13;;;1.63;;
42110;SDS011;27766;52.174;5.456;2022-10-16T14:19:35;7.65;;;1.45;;
42110;SDS011;27766;52.174;5.456;2022-10-16T14:22:01;4.05;;;1.73;;
42110;SDS011;27766;52.174;5.456;2022-10-16T14:26:59;6.88;;;1.67;;
42110;SDS011;27766;52.174;5.456;2022-10-16T14:29:28;3.88;;;1.08;;
42110;SDS011;27766;52.174;5.456;2022-10-16T14:34:53;4.63;;;1.85;;
42110;SDS011;27766;52.174;5.456;2022-10-16T14:37:27;4.28;;;1.40;;
42110;SDS011;27766;52.174;5.456;2022-10-16T14:40:01;5.70;;;1.40;;
42110;SDS011;27766;52.174;5.456;2022-10-16T14:42:29;1.50;;;0.82;;
42110;SDS011;27766;52.174;5.456;2022-10-16T14:44:57;7.43;;;1.50;;
42110;SDS011;27766;52.174;5.456;2022-10-16T14:47:25;6.80;;;2.30;;
42110;SDS011;27766;52.174;5.456;2022-10-16T14:49:54;6.85;;;1.23;;
42110;SDS011;27766;52.174;5.456;2022-10-16T14:52:25;8.93;;;2.35;;
42110;SDS011;27766;52.174;5.456;2022-10-16T14:54:52;6.47;;;1.73;;
42110;SDS011;27766;52.174;5.456;2022-10-16T14:57:24;6.45;;;1.77;;
42110;SDS011;27766;52.174;5.456;2022-10-16T14:59:54;5.65;;;1.40;;
42110;SDS011;27766;52.174;5.456;2022-10-16T15:02:28;4.10;;;1.70;;
42110;SDS011;27766;52.174;5.456;2022-10-16T15:07:55;5.47;;;1.88;;
42110;SDS011;27766;52.174;5.456;2022-10-16T15:10:23;9.13;;;1.77;;
42110;SDS011;27766;52.174;5.456;2022-10-16T15:12:52;3.75;;;1.85;;
42110;SDS011;27766;52.174;5.456;2022-10-16T15:17:49;3.38;;;2.10;;
42110;SDS011;27766;52.174;5.456;2022-10-16T15:20:23;10.65;;;1.90;;
42110;SDS011;27766;52.174;5.456;2022-10-16T15:22:51;4.25;;;1.75;;
42110;SDS011;27766;52.174;5.456;2022-10-16T15:28:11;7.53;;;1.88;;
42110;SDS011;27766;52.174;5.456;2022-10-16T15:30:39;6.93;;;1.90;;
42110;SDS011;27766;52.174;5.456;2022-10-16T15:33:25;8.75;;;1.60;;
42110;SDS011;27766;52.174;5.456;2022-10-16T15:36:05;2.67;;;1.38;;
42110;SDS011;27766;52.174;5.456;2022-10-16T15:38:32;10.32;;;2.22;;
42110;SDS011;27766;52.174;5.456;2022-10-16T15:40:59;7.22;;;1.58;;
42110;SDS011;27766;52.174;5.456;2022-10-16T15:43:26;4.82;;;1.98;;
42110;SDS011;27766;52.174;5.456;2022-10-16T15:46:01;4.90;;;2.90;;
42110;SDS011;27766;52.174;5.456;2022-10-16T15:48:30;10.82;;;2.85;;
42110;SDS011;27766;52.174;5.456;2022-10-16T15:51:04;6.53;;;2.20;;
42110;SDS011;27766;52.174;5.456;2022-10-16T15:53:33;4.70;;;1.88;;
42110;SDS011;27766;52.174;5.456;2022-10-16T15:56:01;8.30;;;2.78;;
42110;SDS011;27766;52.174;5.456;2022-10-16T15:58:32;11.43;;;3.22;;
42110;SDS011;27766;52.174;5.456;2022-10-16T16:01:00;10.63;;;3.97;;
42110;SDS011;27766;52.174;5.456;2022-10-16T16:03:28;6.97;;;3.53;;
42110;SDS011;27766;52.174;5.456;2022-10-16T16:05:56;12.98;;;3.55;;
42110;SDS011;27766;52.174;5.456;2022-10-16T16:08:24;8.82;;;4.57;;
42110;SDS011;27766;52.174;5.456;2022-10-16T16:11:01;15.65;;;6.05;;
42110;SDS011;27766;52.174;5.456;2022-10-16T16:13:30;19.30;;;7.78;;
42110;SDS011;27766;52.174;5.456;2022-10-16T16:16:01;11.13;;;6.68;;
42110;SDS011;27766;52.174;5.456;2022-10-16T16:18:28;18.35;;;7.55;;
42110;SDS011;27766;52.174;5.456;2022-10-16T16:20:55;15.45;;;8.13;;
42110;SDS011;27766;52.174;5.456;2022-10-16T16:23:23;11.93;;;6.60;;
42110;SDS011;27766;52.174;5.456;2022-10-16T16:28:37;10.68;;;5.38;;
42110;SDS011;27766;52.174;5.456;2022-10-16T16:31:06;15.88;;;5.68;;
42110;SDS011;27766;52.174;5.456;2022-10-16T16:33:33;16.05;;;6.68;;
42110;SDS011;27766;52.174;5.456;2022-10-16T16:36:03;11.57;;;6.65;;
42110;SDS011;27766;52.174;5.456;2022-10-16T16:38:38;14.50;;;7.60;;
42110;SDS011;27766;52.174;5.456;2022-10-16T16:41:12;15.85;;;8.75;;
42110;SDS011;27766;52.174;5.456;2022-10-16T16:43:42;18.55;;;8.85;;
42110;SDS011;27766;52.174;5.456;2022-10-16T16:46:09;19.33;;;9.50;;
42110;SDS011;27766;52.174;5.456;2022-10-16T16:48:37;22.77;;;10.77;;
42110;SDS011;27766;52.174;5.456;2022-10-16T16:51:09;20.92;;;10.10;;
42110;SDS011;27766;52.174;5.456;2022-10-16T16:53:46;21.25;;;11.00;;
42110;SDS011;27766;52.174;5.456;2022-10-16T16:56:15;18.50;;;11.77;;
42110;SDS011;27766;52.174;5.456;2022-10-16T16:58:44;16.85;;;11.55;;
42110;SDS011;27766;52.174;5.456;2022-10-16T17:01:12;17.83;;;11.13;;
42110;SDS011;27766;52.174;5.456;2022-10-16T17:03:48;20.52;;;13.32;;
42110;SDS011;27766;52.174;5.456;2022-10-16T17:06:24;21.27;;;13.35;;
42110;SDS011;27766;52.174;5.456;2022-10-16T17:09:01;29.90;;;15.73;;
42110;SDS011;27766;52.174;5.456;2022-10-16T17:11:31;20.67;;;14.80;;
42110;SDS011;27766;52.174;5.456;2022-10-16T17:14:00;29.00;;;16.52;;
42110;SDS011;27766;52.174;5.456;2022-10-16T17:16:32;23.42;;;14.35;;
42110;SDS011;27766;52.174;5.456;2022-10-16T17:19:04;21.90;;;11.30;;